Accueil
METAR-TAF:

METAR-TAF

Aéroports :

Aéroport de Saint-Yan

Saint-Yan, France

latitude: 46-24-45N, longitude: 004-00-48E, altitude: 244 m

Observation

Le bulletin a été fait il y a 33 minutes, à 11:00 UTC
Vent 7 kt de nord-ouest, variant entre ouest et nord/nord-est
Température 11°C
Humidité 50%
Pression 1019 hPa
Visibilité 10 km ou plus
Quelques nuages à une hauteur de 3700 ft

METAR: LFLN 031100Z AUTO 32007KT 270V020 9999 FEW037 11/01 Q1019

Heure: 13:33 (11:33 UTC)


TAF: absent

Observations et prévisions météorologiques de plus de 4000 aéroports (messages METAR et TAF).

Les stations disponibles sont représentées par des disques jaunes et rouges sur la carte.

Passer la souris dessus pour voir le nom de la station.

Cliquer dessus pour voir les observations et prévisions météorologiques.

Pour changer de carte: cliquez sur les boutons verts avec une croix noire pour zoomer, sur le bouton vert avec un tiret pour effectuer un zoom arrière, ou sur les flèches vertes pour les cartes adjacentes.


METAR-TAF: